Time;durP1;ratioP1;P1;durP2;ratioP2;P2;SDS_P1;SDS_P2;PMS_P1;PMS_P2;Temp;Humidity;BMP_temperature;BMP_pressure;BME280_temperature;BME280_humidity;BME280_pressure;Samples;Min_cycle;Max_cycle;Signal;HPM_P1;HPM_P2
2022/04/26 03:37:05;;;;;;;42.60;28.90;;;8.40;99.90;;;;;;5035622;28;20234;-41
2022/04/26 03:39:32;;;;;;;41.80;27.20;;;8.40;99.90;;;;;;5035443;28;20235;-42
2022/04/26 03:41:58;;;;;;;41.83;25.13;;;8.30;99.90;;;;;;5034966;28;20220;-40
2022/04/26 03:44:24;;;;;;;35.83;23.33;;;8.30;99.90;;;;;;5034964;28;20223;-39
2022/04/26 03:46:49;;;;;;;36.63;25.50;;;8.30;99.90;;;;;;5035037;28;20223;-41
2022/04/26 03:49:15;;;;;;;44.03;27.23;;;8.30;99.90;;;;;;5035434;28;20164;-42
2022/04/26 03:51:41;;;;;;;37.17;23.73;;;8.30;99.90;;;;;;5034457;28;20188;-41
2022/04/26 03:54:07;;;;;;;34.03;21.37;;;8.30;99.90;;;;;;5033609;28;20185;-42
2022/04/26 03:56:32;;;;;;;36.57;23.30;;;8.30;99.90;;;;;;5035046;28;20200;-43
2022/04/26 03:58:58;;;;;;;32.03;21.87;;;8.30;99.90;;;;;;5034681;28;20537;-39
2022/04/26 04:01:23;;;;;;;33.87;22.10;;;8.20;99.90;;;;;;5034662;28;20179;-41
2022/04/26 04:03:49;;;;;;;33.80;22.90;;;8.20;99.90;;;;;;5034604;28;20660;-42
2022/04/26 04:06:14;;;;;;;31.63;19.87;;;8.20;99.90;;;;;;5034492;28;20205;-40
2022/04/26 04:08:40;;;;;;;30.70;20.77;;;8.20;99.90;;;;;;5035200;28;20177;-43
2022/04/26 04:11:06;;;;;;;31.53;21.27;;;8.20;99.90;;;;;;5034865;28;20187;-43
2022/04/26 04:13:31;;;;;;;32.97;21.50;;;8.10;99.90;;;;;;5034689;28;20168;-42
2022/04/26 04:15:57;;;;;;;29.47;19.27;;;8.20;99.90;;;;;;5035193;28;20648;-43
2022/04/26 04:21:07;;;;;;;29.10;18.67;;;8.10;99.90;;;;;;5034807;28;20169;-42
2022/04/26 04:23:36;;;;;;;24.67;17.17;;;8.10;99.90;;;;;;5033054;28;20205;-42
2022/04/26 04:26:01;;;;;;;26.87;18.43;;;8.10;99.90;;;;;;5034477;28;20586;-41
2022/04/26 04:28:27;;;;;;;30.17;19.30;;;8.00;99.90;;;;;;5034250;28;20180;-40
2022/04/26 04:30:52;;;;;;;28.03;19.23;;;8.00;99.90;;;;;;5034086;28;20177;-41
2022/04/26 04:33:18;;;;;;;32.93;20.13;;;8.00;99.90;;;;;;5033555;28;20705;-41
2022/04/26 04:35:44;;;;;;;23.37;15.57;;;8.00;99.90;;;;;;5034412;28;20186;-42
2022/04/26 04:38:09;;;;;;;29.03;17.30;;;7.90;99.90;;;;;;5033851;28;20639;-40
2022/04/26 04:40:35;;;;;;;25.83;16.83;;;7.90;99.90;;;;;;5034209;28;20189;-41
2022/04/26 04:43:00;;;;;;;23.47;15.07;;;7.80;99.90;;;;;;5034611;28;20214;-39
2022/04/26 04:45:26;;;;;;;19.40;13.80;;;7.80;99.90;;;;;;5033959;28;20177;-40
2022/04/26 04:47:51;;;;;;;14.27;9.83;;;7.80;99.90;;;;;;5034656;28;20261;-41
2022/04/26 04:50:17;;;;;;;14.00;9.87;;;7.70;99.90;;;;;;5034550;28;20218;-41
2022/04/26 04:52:43;;;;;;;15.03;9.73;;;7.60;99.90;;;;;;5034027;28;20216;-40
2022/04/26 04:55:08;;;;;;;16.97;10.60;;;7.60;99.90;;;;;;5033953;28;20184;-40
2022/04/26 04:57:34;;;;;;;17.00;11.37;;;7.60;99.90;;;;;;5033695;28;20215;-41
2022/04/26 05:00:01;;;;;;;12.60;8.80;;;7.50;99.90;;;;;;5033659;28;20180;-41
2022/04/26 05:02:26;;;;;;;12.90;9.43;;;7.60;99.90;;;;;;5033704;28;20204;-40
2022/04/26 05:04:52;;;;;;;16.63;10.90;;;7.60;99.90;;;;;;5033747;28;20185;-40
2022/04/26 05:07:17;;;;;;;16.07;10.07;;;7.50;99.90;;;;;;5033519;28;20200;-42
2022/04/26 05:09:43;;;;;;;17.00;10.13;;;7.60;99.90;;;;;;5033563;28;20191;-40
2022/04/26 05:12:09;;;;;;;13.60;8.57;;;7.60;99.90;;;;;;5033689;28;20181;-44
2022/04/26 05:14:35;;;;;;;10.77;7.20;;;7.50;99.90;;;;;;5034035;28;20189;-44
2022/04/26 05:17:01;;;;;;;12.30;8.93;;;7.50;99.90;;;;;;5033846;28;20625;-45
2022/04/26 05:19:26;;;;;;;11.43;7.90;;;7.50;99.90;;;;;;5033661;28;20230;-46
2022/04/26 05:21:52;;;;;;;11.47;8.60;;;7.40;99.90;;;;;;5033372;28;20246;-46
2022/04/26 05:27:02;;;;;;;12.63;8.03;;;7.40;99.90;;;;;;5033690;28;20834;-44
2022/04/26 05:29:27;;;;;;;10.33;8.03;;;7.40;99.90;;;;;;5033320;28;20275;-43
2022/04/26 05:31:53;;;;;;;16.10;7.73;;;7.40;99.90;;;;;;5033444;28;20183;-47
2022/04/26 05:34:18;;;;;;;9.93;7.40;;;7.40;99.90;;;;;;5032537;28;20188;-46
2022/04/26 05:36:44;;;;;;;11.80;7.00;;;7.30;99.90;;;;;;5033898;28;20257;-43
2022/04/26 05:39:09;;;;;;;8.47;6.33;;;7.30;99.90;;;;;;5033681;28;20177;-44
2022/04/26 05:41:35;;;;;;;15.93;7.43;;;7.40;99.90;;;;;;5033116;28;20554;-44
2022/04/26 05:44:00;;;;;;;9.37;6.10;;;7.40;99.90;;;;;;5033181;28;20552;-44
2022/04/26 05:46:26;;;;;;;8.43;6.73;;;7.30;99.90;;;;;;5036853;28;20239;-44
2022/04/26 05:48:52;;;;;;;15.10;6.90;;;7.40;99.90;;;;;;5037120;28;20211;-45
2022/04/26 05:51:17;;;;;;;12.20;8.03;;;7.30;99.90;;;;;;5037066;28;20187;-46
2022/04/26 05:53:43;;;;;;;13.17;7.30;;;7.40;99.90;;;;;;5035673;28;20238;-45
2022/04/26 05:56:10;;;;;;;9.90;7.27;;;7.40;99.90;;;;;;5037253;28;20188;-44
2022/04/26 05:58:36;;;;;;;9.93;7.30;;;7.40;99.90;;;;;;5037182;28;20185;-44
2022/04/26 06:01:03;;;;;;;10.50;7.10;;;7.40;99.90;;;;;;5036920;28;20184;-45
2022/04/26 06:03:29;;;;;;;15.73;8.40;;;7.40;99.90;;;;;;5037133;28;20204;-45
2022/04/26 06:05:55;;;;;;;13.70;7.43;;;7.40;99.90;;;;;;5036818;28;20187;-44
2022/04/26 06:08:22;;;;;;;11.83;6.63;;;7.40;99.90;;;;;;5036976;28;20180;-44
2022/04/26 06:10:47;;;;;;;13.07;8.43;;;7.50;99.90;;;;;;5037007;28;20211;-43
2022/04/26 06:13:13;;;;;;;17.23;8.47;;;7.40;99.90;;;;;;5036744;28;20728;-43
2022/04/26 06:15:38;;;;;;;11.20;6.40;;;7.50;99.90;;;;;;5037265;28;20185;-44
2022/04/26 06:18:04;;;;;;;14.20;8.07;;;7.50;99.90;;;;;;5036565;28;20206;-44
2022/04/26 06:20:30;;;;;;;14.57;8.70;;;7.50;99.90;;;;;;5036911;28;20279;-45
2022/04/26 06:22:55;;;;;;;15.97;8.60;;;7.50;99.90;;;;;;5035165;28;20574;-43
2022/04/26 06:25:21;;;;;;;13.83;7.10;;;7.50;99.90;;;;;;5036661;28;20188;-43
2022/04/26 06:27:47;;;;;;;16.00;8.53;;;7.50;99.90;;;;;;5036655;28;20196;-44
2022/04/26 06:30:13;;;;;;;15.77;8.80;;;7.50;99.90;;;;;;5036607;28;20195;-44
2022/04/26 06:32:42;;;;;;;13.33;6.87;;;7.60;99.90;;;;;;5036332;28;20187;-44
2022/04/26 06:35:08;;;;;;;11.33;7.47;;;7.50;99.90;;;;;;5036565;28;20195;-43
2022/04/26 06:37:33;;;;;;;12.07;6.63;;;7.60;99.90;;;;;;5036264;28;20239;-44
2022/04/26 06:39:59;;;;;;;15.57;8.83;;;7.50;99.90;;;;;;5036250;28;20549;-43
2022/04/26 06:42:24;;;;;;;18.13;10.00;;;7.50;99.90;;;;;;5036780;28;20236;-46
2022/04/26 06:44:50;;;;;;;18.40;10.97;;;7.50;99.90;;;;;;5036325;28;20715;-44
2022/04/26 06:47:15;;;;;;;15.97;10.73;;;7.60;99.90;;;;;;5036243;28;20218;-44
2022/04/26 06:49:41;;;;;;;18.83;9.90;;;7.60;99.90;;;;;;5037057;28;20182;-44
2022/04/26 06:52:06;;;;;;;20.60;11.33;;;7.70;99.90;;;;;;5036929;28;20183;-45
2022/04/26 06:54:32;;;;;;;24.70;12.30;;;7.70;99.90;;;;;;5036562;28;20180;-44
2022/04/26 06:56:57;;;;;;;33.73;13.90;;;7.70;99.90;;;;;;5035485;28;20243;-43
2022/04/26 06:59:23;;;;;;;29.67;13.20;;;7.70;99.90;;;;;;5036577;28;20211;-43
2022/04/26 07:01:52;;;;;;;33.77;13.50;;;7.80;99.90;;;;;;5037058;28;20592;-40
2022/04/26 07:04:19;;;;;;;31.40;15.03;;;7.70;99.90;;;;;;5037570;28;20220;-42
2022/04/26 07:06:45;;;;;;;33.87;16.77;;;7.70;99.90;;;;;;5038001;28;20212;-40
2022/04/26 07:09:11;;;;;;;36.03;17.57;;;7.70;99.90;;;;;;5036031;28;20642;-42
2022/04/26 07:11:36;;;;;;;25.80;13.93;;;7.80;99.90;;;;;;5036199;28;20223;-44
2022/04/26 07:14:02;;;;;;;34.00;16.20;;;7.90;99.90;;;;;;5035265;28;20217;-46
2022/04/26 07:16:27;;;;;;;32.93;16.27;;;8.00;99.90;;;;;;5035931;28;20204;-45
2022/04/26 07:18:53;;;;;;;37.13;20.70;;;8.10;99.90;;;;;;5035902;28;20576;-45
2022/04/26 07:21:19;;;;;;;42.00;19.20;;;8.20;99.90;;;;;;5036645;28;20191;-44
2022/04/26 07:23:45;;;;;;;35.40;19.37;;;8.30;99.90;;;;;;5036391;28;20212;-45
2022/04/26 07:26:10;;;;;;;40.13;19.63;;;8.50;99.90;;;;;;5036640;28;20312;-45
2022/04/26 07:28:36;;;;;;;40.13;19.77;;;8.50;99.90;;;;;;5036761;28;20184;-45
2022/04/26 07:31:01;;;;;;;31.33;16.47;;;8.70;99.90;;;;;;5037171;28;20177;-44
2022/04/26 07:36:11;;;;;;;28.50;14.40;;;8.80;99.90;;;;;;5035710;28;20176;-44
2022/04/26 07:38:37;;;;;;;24.93;13.00;;;8.80;99.90;;;;;;5035418;28;20200;-43
2022/04/26 07:41:03;;;;;;;28.53;15.23;;;8.80;99.90;;;;;;5035916;28;20176;-45
2022/04/26 07:43:28;;;;;;;20.50;12.53;;;8.90;99.90;;;;;;5035530;28;20219;-44
2022/04/26 07:45:54;;;;;;;23.57;13.27;;;8.90;99.90;;;;;;5035562;28;20234;-43
2022/04/26 07:48:22;;;;;;;20.77;12.37;;;8.90;99.90;;;;;;5035143;28;20177;-45
2022/04/26 07:50:48;;;;;;;22.03;12.43;;;8.90;99.90;;;;;;5035257;28;20640;-46
2022/04/26 07:53:14;;;;;;;22.30;13.50;;;8.80;99.90;;;;;;5035566;28;20206;-43
2022/04/26 07:55:40;;;;;;;25.17;12.80;;;8.80;99.90;;;;;;5035212;28;20637;-46
2022/04/26 07:58:05;;;;;;;22.70;12.80;;;8.70;99.90;;;;;;5034901;28;20236;-45
2022/04/26 08:00:32;;;;;;;21.97;13.73;;;8.70;99.90;;;;;;5035152;28;20185;-46
2022/04/26 08:02:58;;;;;;;20.93;13.13;;;8.70;99.90;;;;;;5034805;28;20233;-45
2022/04/26 08:05:23;;;;;;;23.67;12.70;;;8.60;99.90;;;;;;5035034;28;20192;-44
2022/04/26 08:07:49;;;;;;;17.03;11.97;;;8.60;99.90;;;;;;5033909;28;20200;-45
2022/04/26 08:10:15;;;;;;;18.87;11.63;;;8.60;99.90;;;;;;5034609;28;20165;-44
2022/04/26 08:12:42;;;;;;;19.90;12.13;;;8.60;99.90;;;;;;5036196;28;20224;-44
2022/04/26 08:15:13;;;;;;;26.30;13.70;;;8.60;99.90;;;;;;5034503;28;20189;-46
2022/04/26 08:17:40;;;;;;;24.30;13.70;;;8.50;99.90;;;;;;5034461;28;20205;-44
2022/04/26 08:20:06;;;;;;;22.43;13.70;;;8.60;99.90;;;;;;5034515;28;20289;-46
2022/04/26 08:22:32;;;;;;;20.70;12.53;;;8.50;99.90;;;;;;5034602;28;20573;-45
2022/04/26 08:27:42;;;;;;;28.00;13.50;;;8.50;99.90;;;;;;5034376;28;20204;-44
2022/04/26 08:30:08;;;;;;;22.63;14.03;;;8.50;99.90;;;;;;5034777;28;20173;-44
2022/04/26 08:32:42;;;;;;;20.57;11.93;;;8.40;99.90;;;;;;5034593;28;20545;-45
2022/04/26 08:35:11;;;;;;;19.60;13.20;;;8.50;99.90;;;;;;5034443;28;20268;-45
2022/04/26 08:37:37;;;;;;;20.00;12.57;;;8.40;99.90;;;;;;5034207;28;20575;-45
2022/04/26 08:40:05;;;;;;;23.70;14.20;;;8.40;99.90;;;;;;5034195;28;20196;-44
2022/04/26 08:42:42;;;;;;;23.37;13.30;;;8.40;99.90;;;;;;5034269;28;20213;-44
2022/04/26 08:45:09;;;;;;;18.10;11.53;;;8.50;99.90;;;;;;5034030;28;20255;-45
2022/04/26 08:53:05;;;;;;;21.23;14.40;;;8.50;99.90;;;;;;5033719;28;20172;-44
2022/04/26 08:55:32;;;;;;;17.87;12.93;;;8.50;99.90;;;;;;5032504;28;20173;-46
2022/04/26 08:57:58;;;;;;;20.97;13.50;;;8.50;99.90;;;;;;5033543;28;20703;-45
2022/04/26 09:00:25;;;;;;;18.70;12.73;;;8.50;99.90;;;;;;5033889;28;20514;-43
2022/04/26 09:03:02;;;;;;;20.43;14.93;;;8.50;99.90;;;;;;5033817;28;20204;-44
2022/04/26 09:05:29;;;;;;;22.17;14.00;;;8.60;99.90;;;;;;5033546;28;20200;-45
2022/04/26 09:07:55;;;;;;;23.80;14.17;;;8.70;99.90;;;;;;5033378;28;20192;-44
2022/04/26 09:10:21;;;;;;;20.37;13.63;;;8.90;99.90;;;;;;5033571;28;20256;-45
2022/04/26 09:13:09;;;;;;;22.17;16.27;;;9.00;99.90;;;;;;5034035;28;20177;-44
2022/04/26 09:15:47;;;;;;;26.03;16.17;;;9.20;99.90;;;;;;5033835;28;20187;-46
2022/04/26 09:18:15;;;;;;;21.90;15.23;;;9.30;99.90;;;;;;5033426;28;20208;-43
2022/04/26 09:20:42;;;;;;;25.73;17.53;;;9.50;99.90;;;;;;5033171;28;20183;-44
2022/04/26 09:23:18;;;;;;;27.77;15.87;;;9.60;99.90;;;;;;5033439;28;20209;-45
2022/04/26 09:25:45;;;;;;;23.90;14.80;;;9.70;99.90;;;;;;5033837;28;20172;-43
2022/04/26 09:28:20;;;;;;;26.20;16.20;;;9.80;99.90;;;;;;5033187;28;20200;-45
2022/04/26 09:30:47;;;;;;;28.20;17.27;;;9.80;99.90;;;;;;5033977;28;20605;-46
2022/04/26 09:33:33;;;;;;;26.37;15.47;;;9.90;99.90;;;;;;5033322;28;20185;-45
2022/04/26 09:36:01;;;;;;;21.10;15.87;;;10.00;99.90;;;;;;5033178;28;20207;-45
2022/04/26 09:38:29;;;;;;;26.47;16.70;;;9.90;99.90;;;;;;5033190;28;20193;-45
2022/04/26 09:41:00;;;;;;;18.53;13.43;;;10.00;99.90;;;;;;5033435;28;20205;-46
2022/04/26 09:43:26;;;;;;;21.63;15.07;;;10.00;99.90;;;;;;5033425;28;20276;-45
2022/04/26 09:45:59;;;;;;;20.40;13.57;;;10.00;99.90;;;;;;5033513;28;20590;-46
2022/04/26 09:48:35;;;;;;;21.77;16.37;;;10.00;99.90;;;;;;5033608;28;20575;-44
2022/04/26 09:51:05;;;;;;;19.13;13.60;;;10.00;99.90;;;;;;5033521;28;20155;-44
2022/04/26 09:53:32;;;;;;;23.83;15.40;;;10.10;99.90;;;;;;5033133;28;20170;-45
2022/04/26 09:55:59;;;;;;;22.03;14.40;;;10.10;99.90;;;;;;5033334;28;20186;-47
2022/04/26 09:58:27;;;;;;;25.43;15.67;;;10.00;99.90;;;;;;5033302;28;20220;-45
2022/04/26 10:00:54;;;;;;;23.87;16.23;;;10.10;99.90;;;;;;5033307;28;20185;-46
2022/04/26 10:03:24;;;;;;;20.30;14.50;;;10.20;99.90;;;;;;5032995;28;20201;-47
2022/04/26 10:05:59;;;;;;;25.57;16.30;;;10.20;99.90;;;;;;5033038;28;20721;-46
2022/04/26 10:08:30;;;;;;;20.87;15.17;;;10.20;99.90;;;;;;5033349;28;20173;-45
2022/04/26 10:11:00;;;;;;;23.63;15.70;;;10.30;99.90;;;;;;5031764;28;20181;-46
2022/04/26 10:13:38;;;;;;;17.70;12.27;;;10.30;99.90;;;;;;5033832;28;20181;-46
2022/04/26 10:16:19;;;;;;;22.67;15.77;;;10.30;99.90;;;;;;5032745;28;20254;-44
2022/04/26 10:18:47;;;;;;;21.60;14.37;;;10.40;99.90;;;;;;5033188;28;20618;-43
2022/04/26 10:21:35;;;;;;;20.53;14.63;;;10.40;99.90;;;;;;5032942;28;20194;-45
2022/04/26 10:24:04;;;;;;;19.80;14.57;;;10.50;99.90;;;;;;5032706;28;20186;-45
2022/04/26 10:26:33;;;;;;;18.90;13.40;;;10.50;99.90;;;;;;5032701;28;20198;-46
2022/04/26 10:29:08;;;;;;;18.83;13.37;;;10.60;99.90;;;;;;5032699;28;20221;-46
2022/04/26 10:31:35;;;;;;;17.77;12.97;;;10.60;99.90;;;;;;5033595;28;20177;-45
2022/04/26 10:34:14;;;;;;;16.87;12.90;;;10.70;99.90;;;;;;5037046;28;20184;-46
2022/04/26 10:36:40;;;;;;;19.33;13.60;;;10.70;99.90;;;;;;5036245;28;20200;-47
2022/04/26 10:39:07;;;;;;;18.80;13.27;;;10.70;99.90;;;;;;5036516;28;20172;-44
2022/04/26 10:41:37;;;;;;;17.67;13.07;;;10.80;99.90;;;;;;5036611;28;20521;-44
2022/04/26 10:44:15;;;;;;;19.70;12.90;;;10.80;99.90;;;;;;5036366;28;20181;-44
2022/04/26 10:46:51;;;;;;;18.37;13.30;;;10.90;99.90;;;;;;5036603;28;20566;-44
2022/04/26 10:49:23;;;;;;;18.00;12.83;;;10.90;99.90;;;;;;5036265;28;20163;-44
2022/04/26 10:51:53;;;;;;;18.20;13.27;;;10.90;99.90;;;;;;5036193;28;20190;-45
2022/04/26 10:54:46;;;;;;;22.20;10.77;;;10.90;99.90;;;;;;5036106;28;20214;-47
2022/04/26 10:57:16;;;;;;;19.20;12.57;;;11.00;99.90;;;;;;5035737;28;20199;-46
2022/04/26 10:59:56;;;;;;;15.70;12.53;;;11.00;99.90;;;;;;5036067;28;20228;-47
2022/04/26 11:02:23;;;;;;;13.73;11.10;;;11.10;99.90;;;;;;5036259;28;20202;-46
2022/04/26 11:04:57;;;;;;;17.83;12.47;;;11.10;99.90;;;;;;5035977;28;20263;-44
2022/04/26 11:07:26;;;;;;;18.33;12.53;;;11.20;99.90;;;;;;5035825;28;20281;-46
2022/04/26 11:09:59;;;;;;;15.80;11.63;;;11.20;99.90;;;;;;5035918;28;20178;-43
2022/04/26 11:12:29;;;;;;;13.33;10.53;;;11.30;99.90;;;;;;5035982;28;20230;-43
2022/04/26 11:14:57;;;;;;;13.13;10.67;;;11.30;99.90;;;;;;5035844;28;20172;-47
2022/04/26 11:17:24;;;;;;;18.93;11.70;;;11.30;99.90;;;;;;5035626;28;20235;-46
2022/04/26 11:19:50;;;;;;;16.30;12.47;;;11.30;99.90;;;;;;5035398;28;20192;-45
2022/04/26 11:22:17;;;;;;;15.13;11.43;;;11.40;99.90;;;;;;5035380;28;20690;-45
2022/04/26 11:30:37;;;;;;;17.10;12.30;;;11.60;99.90;;;;;;5035344;28;20242;-44
2022/04/26 11:33:09;;;;;;;13.50;12.10;;;11.70;99.90;;;;;;5035527;28;20553;-46
2022/04/26 11:35:36;;;;;;;17.10;12.10;;;11.80;99.90;;;;;;5035219;28;20508;-46
2022/04/26 11:38:08;;;;;;;18.20;11.43;;;11.80;99.90;;;;;;5035151;28;20726;-46
2022/04/26 11:40:38;;;;;;;16.43;12.07;;;11.90;99.90;;;;;;5033839;28;20195;-43
2022/04/26 11:43:15;;;;;;;16.30;10.47;;;12.00;99.90;;;;;;5035130;28;20227;-46
2022/04/26 11:45:46;;;;;;;16.30;12.40;;;12.10;99.90;;;;;;5035417;28;20238;-44
2022/04/26 11:48:20;;;;;;;17.50;11.90;;;12.20;99.90;;;;;;5034829;28;20275;-45
2022/04/26 11:50:49;;;;;;;16.27;12.17;;;12.30;99.90;;;;;;5035179;28;20578;-45
2022/04/26 11:53:17;;;;;;;15.57;12.00;;;12.40;99.90;;;;;;5035152;28;20181;-44
2022/04/26 11:55:45;;;;;;;19.10;12.00;;;12.60;99.90;;;;;;5034803;28;20181;-45
2022/04/26 11:58:17;;;;;;;13.53;10.90;;;12.70;99.90;;;;;;5034919;28;20200;-46
2022/04/26 12:00:51;;;;;;;14.60;11.17;;;12.80;99.90;;;;;;5035025;28;20183;-46
2022/04/26 12:03:19;;;;;;;13.67;11.70;;;12.90;99.90;;;;;;5034774;28;20585;-45
2022/04/26 12:05:45;;;;;;;15.00;11.23;;;12.90;99.90;;;;;;5034587;28;20264;-44
2022/04/26 12:08:12;;;;;;;15.60;11.63;;;13.00;99.90;;;;;;5034745;28;20204;-46
2022/04/26 12:10:38;;;;;;;13.00;11.13;;;13.10;99.90;;;;;;5034744;28;20683;-45
2022/04/26 12:13:08;;;;;;;13.23;11.07;;;13.30;99.90;;;;;;5034462;28;20216;-46
2022/04/26 12:15:38;;;;;;;13.93;10.37;;;13.40;99.90;;;;;;5034774;28;20622;-44
2022/04/26 12:18:09;;;;;;;13.03;10.07;;;13.60;99.90;;;;;;5034319;28;20216;-46
2022/04/26 12:20:37;;;;;;;14.20;8.87;;;13.60;99.90;;;;;;5034361;28;20244;-45
2022/04/26 12:23:04;;;;;;;11.40;9.40;;;13.70;99.90;;;;;;5034985;28;20216;-45
2022/04/26 12:25:33;;;;;;;13.97;10.43;;;13.70;99.90;;;;;;5034446;28;20177;-47
2022/04/26 12:28:03;;;;;;;14.07;10.10;;;13.80;99.90;;;;;;5034407;28;20239;-46
2022/04/26 12:30:30;;;;;;;11.83;9.10;;;13.90;99.90;;;;;;5034439;28;20594;-46
2022/04/26 12:32:56;;;;;;;9.77;8.40;;;14.10;99.90;;;;;;5034352;28;20185;-46
2022/04/26 12:35:22;;;;;;;11.60;8.93;;;14.00;99.90;;;;;;5033946;28;20525;-46
2022/04/26 12:38:03;;;;;;;11.37;9.20;;;14.10;99.90;;;;;;5033789;28;20216;-45
2022/04/26 12:40:28;;;;;;;10.93;8.90;;;14.10;99.90;;;;;;5034018;28;20248;-45
2022/04/26 12:42:57;;;;;;;12.33;8.47;;;14.20;99.90;;;;;;5033868;28;20287;-45
2022/04/26 12:45:23;;;;;;;11.47;8.33;;;14.30;99.90;;;;;;5034099;28;20544;-46
2022/04/26 12:50:55;;;;;;;9.23;7.80;;;14.50;99.90;;;;;;5034902;28;20244;-45
2022/04/26 12:53:26;;;;;;;9.03;8.13;;;14.40;99.90;;;;;;5034827;28;20235;-47
2022/04/26 12:55:53;;;;;;;9.83;8.17;;;14.40;99.90;;;;;;5034179;28;20189;-41
2022/04/26 12:58:34;;;;;;;11.13;8.03;;;14.40;99.90;;;;;;5035034;28;20524;-47
2022/04/26 13:01:00;;;;;;;9.67;8.00;;;14.50;99.90;;;;;;5035802;28;20184;-48
2022/04/26 13:03:25;;;;;;;9.47;8.47;;;14.60;99.90;;;;;;5035771;28;20204;-48
2022/04/26 13:06:07;;;;;;;10.10;7.37;;;14.80;99.90;;;;;;5035792;28;20661;-49
2022/04/26 13:08:33;;;;;;;9.87;7.83;;;14.80;99.90;;;;;;5035964;28;20162;-45
2022/04/26 13:10:59;;;;;;;10.00;8.87;;;14.90;99.90;;;;;;5036745;28;20311;-47
2022/04/26 13:13:27;;;;;;;9.40;8.37;;;15.20;99.90;;;;;;5036132;28;20557;-48
2022/04/26 13:15:53;;;;;;;9.77;8.13;;;15.40;99.90;;;;;;5035591;28;20590;-47
2022/04/26 13:18:18;;;;;;;9.07;7.43;;;15.40;99.90;;;;;;5034212;28;20185;-46
2022/04/26 13:20:45;;;;;;;12.23;7.87;;;15.40;99.90;;;;;;5034820;28;20239;-47
2022/04/26 13:23:15;;;;;;;11.70;7.50;;;15.20;99.90;;;;;;5034497;28;20546;-47
2022/04/26 13:25:41;;;;;;;10.70;7.77;;;15.00;99.90;;;;;;5034526;28;20173;-49
2022/04/26 13:28:08;;;;;;;8.73;6.80;;;15.00;99.90;;;;;;5035077;28;20197;-48
2022/04/26 13:30:34;;;;;;;13.93;7.60;;;15.00;99.90;;;;;;5034458;28;20661;-48
2022/04/26 13:33:00;;;;;;;10.33;7.50;;;15.00;99.90;;;;;;5034901;28;20191;-48
2022/04/26 13:35:26;;;;;;;8.60;6.97;;;14.90;99.90;;;;;;5035219;28;20177;-48
2022/04/26 13:37:52;;;;;;;11.50;7.70;;;15.00;99.90;;;;;;5034538;28;20216;-47
2022/04/26 13:40:19;;;;;;;8.03;6.77;;;15.00;99.90;;;;;;5034648;28;20236;-48
2022/04/26 13:42:45;;;;;;;8.13;6.90;;;15.10;99.90;;;;;;5034433;28;20200;-48
2022/04/26 13:45:10;;;;;;;10.70;7.70;;;15.20;99.90;;;;;;5034780;28;20540;-48
2022/04/26 13:47:38;;;;;;;8.17;7.37;;;15.10;99.90;;;;;;5034931;28;20196;-47
2022/04/26 13:50:07;;;;;;;9.60;7.37;;;15.10;99.90;;;;;;5034696;28;20192;-48
2022/04/26 13:52:33;;;;;;;10.93;6.77;;;15.20;99.90;;;;;;5034440;28;20189;-47
2022/04/26 13:55:00;;;;;;;7.17;6.20;;;15.50;99.90;;;;;;5034315;28;20565;-47
2022/04/26 13:57:25;;;;;;;8.80;6.40;;;15.70;99.90;;;;;;5034001;28;20205;-48
2022/04/26 13:59:51;;;;;;;8.43;6.63;;;15.80;99.90;;;;;;5049470;28;20212;-48
2022/04/26 14:02:19;;;;;;;9.70;6.40;;;15.90;99.90;;;;;;5033851;28;20200;-48
2022/04/26 14:04:47;;;;;;;9.30;6.67;;;16.00;99.90;;;;;;5034176;28;20180;-46
2022/04/26 14:07:12;;;;;;;10.60;6.40;;;15.90;99.90;;;;;;5036166;28;20204;-47
2022/04/26 14:09:38;;;;;;;10.50;6.57;;;15.80;99.90;;;;;;5040243;28;20181;-47
2022/04/26 14:12:04;;;;;;;6.83;6.13;;;15.70;99.90;;;;;;5040946;28;20254;-46
2022/04/26 14:22:44;;;;;;;7.10;5.97;;;15.30;99.90;;;;;;5036855;28;20328;-46
2022/04/26 14:25:11;;;;;;;7.60;6.80;;;15.20;99.90;;;;;;5036584;28;20156;-47
2022/04/26 14:27:39;;;;;;;9.57;6.83;;;15.00;99.90;;;;;;5036436;28;20675;-46
2022/04/26 14:30:10;;;;;;;10.33;6.90;;;14.90;99.90;;;;;;5036377;28;20212;-48
2022/04/26 14:32:36;;;;;;;7.50;6.33;;;14.70;99.90;;;;;;5036431;28;20179;-46
2022/04/26 14:35:02;;;;;;;8.47;6.63;;;14.70;99.90;;;;;;5036381;28;20181;-46
2022/04/26 14:37:29;;;;;;;9.50;7.00;;;14.70;99.90;;;;;;5036121;28;20213;-45
2022/04/26 14:39:54;;;;;;;8.40;6.23;;;14.70;99.90;;;;;;5036537;28;20657;-46
2022/04/26 14:42:21;;;;;;;7.43;6.40;;;14.80;99.90;;;;;;5036198;28;20197;-46
2022/04/26 14:44:47;;;;;;;10.93;6.23;;;14.80;99.90;;;;;;5036769;28;20182;-48
2022/04/26 14:47:14;;;;;;;9.13;6.50;;;14.70;99.90;;;;;;5036748;28;20576;-44
2022/04/26 14:49:40;;;;;;;6.60;5.70;;;14.70;99.90;;;;;;5036340;28;20181;-46
2022/04/26 14:52:07;;;;;;;10.40;6.30;;;14.70;99.90;;;;;;5036354;28;20649;-46
2022/04/26 14:54:36;;;;;;;6.93;6.23;;;14.70;99.90;;;;;;5035220;28;20537;-45
2022/04/26 14:57:04;;;;;;;7.97;6.20;;;14.70;99.90;;;;;;5035319;28;20288;-46
2022/04/26 14:59:30;;;;;;;9.33;6.23;;;14.70;99.90;;;;;;5037194;28;20230;-48
2022/04/26 15:01:56;;;;;;;7.57;5.80;;;14.80;99.90;;;;;;5038072;28;20555;-47
2022/04/26 15:04:23;;;;;;;6.80;6.07;;;14.90;99.90;;;;;;5037324;28;20169;-47
2022/04/26 15:06:50;;;;;;;8.67;6.43;;;15.00;99.90;;;;;;5037344;28;20217;-49
2022/04/26 15:17:30;;;;;;;7.83;5.37;;;15.00;99.90;;;;;;5036597;28;20694;-47
2022/04/26 15:19:56;;;;;;;7.27;5.30;;;14.90;99.90;;;;;;5037225;28;20181;-47
2022/04/26 15:22:23;;;;;;;6.30;5.23;;;14.90;99.90;;;;;;5037380;28;20200;-47
2022/04/26 15:24:50;;;;;;;6.73;5.30;;;15.00;99.90;;;;;;5036909;28;20608;-46
2022/04/26 15:27:18;;;;;;;7.17;5.00;;;14.90;99.90;;;;;;5036887;28;20201;-46
2022/04/26 15:29:44;;;;;;;6.70;4.97;;;14.90;99.90;;;;;;5037261;28;20177;-46
2022/04/26 15:32:09;;;;;;;7.03;5.50;;;15.00;99.90;;;;;;5052300;28;20242;-46
2022/04/26 15:34:35;;;;;;;8.50;4.83;;;15.00;99.90;;;;;;5036864;28;20181;-47
2022/04/26 15:37:02;;;;;;;7.13;4.93;;;15.00;99.90;;;;;;5037147;28;20209;-47
2022/04/26 15:39:28;;;;;;;6.53;5.00;;;15.10;99.90;;;;;;5037399;28;20173;-47
2022/04/26 15:41:54;;;;;;;5.70;5.03;;;15.20;99.90;;;;;;5037125;28;20188;-47
2022/04/26 15:44:19;;;;;;;9.20;4.93;;;15.20;99.90;;;;;;5037045;28;20551;-48
2022/04/26 15:46:50;;;;;;;6.33;4.73;;;15.10;99.90;;;;;;5037030;28;20207;-48
2022/04/26 15:49:20;;;;;;;6.13;5.20;;;15.10;99.90;;;;;;5037022;28;20177;-46
2022/04/26 15:51:47;;;;;;;5.37;4.83;;;15.00;99.90;;;;;;5036973;28;20181;-49
2022/04/26 15:54:14;;;;;;;6.43;4.80;;;15.00;99.90;;;;;;5037026;28;20195;-48
2022/04/26 15:56:41;;;;;;;5.50;4.73;;;15.10;99.90;;;;;;5037145;28;20197;-46
2022/04/26 15:59:07;;;;;;;5.53;4.80;;;15.20;99.90;;;;;;5036948;28;20192;-46
2022/04/26 16:01:33;;;;;;;9.40;5.37;;;15.10;99.90;;;;;;5037347;28;20185;-48
2022/04/26 16:04:00;;;;;;;6.37;5.33;;;15.20;99.90;;;;;;5037390;28;20204;-48
2022/04/26 16:06:26;;;;;;;7.43;4.80;;;15.20;99.90;;;;;;5037282;28;20197;-48
2022/04/26 16:08:51;;;;;;;6.00;4.70;;;15.10;99.90;;;;;;5037033;28;20256;-44
2022/04/26 16:20:30;;;;;;;11.30;5.63;;;14.80;99.90;;;;;;5036709;28;20539;-47
2022/04/26 16:22:24;;;;;;;8.73;4.90;;;14.80;99.90;;;;;;5027588;28;20712;-44
2022/04/26 16:24:50;;;;;;;6.97;5.40;;;15.00;99.90;;;;;;5036318;28;20177;-48
2022/04/26 16:27:16;;;;;;;5.47;4.30;;;15.10;99.90;;;;;;5035474;28;20224;-48
2022/04/26 16:29:42;;;;;;;7.20;4.80;;;15.20;99.90;;;;;;5036067;28;20699;-46
2022/04/26 16:32:07;;;;;;;5.70;4.47;;;15.20;99.90;;;;;;5035419;28;20624;-48
2022/04/26 16:34:33;;;;;;;8.33;4.53;;;15.30;99.90;;;;;;5036134;28;20189;-46
2022/04/26 16:36:58;;;;;;;6.90;4.80;;;15.20;99.90;;;;;;5036490;28;20212;-46
2022/04/26 16:39:24;;;;;;;7.10;4.80;;;15.10;99.90;;;;;;5035884;28;20177;-47
2022/04/26 16:41:49;;;;;;;5.47;4.37;;;14.90;99.90;;;;;;5036986;28;20188;-48
2022/04/26 16:44:17;;;;;;;8.67;4.70;;;14.70;99.90;;;;;;5036451;28;20184;-47
2022/04/26 16:46:42;;;;;;;4.80;4.30;;;14.70;99.90;;;;;;5036450;28;20188;-46
2022/04/26 16:49:09;;;;;;;7.30;4.50;;;14.70;99.90;;;;;;5037248;28;20180;-46
2022/04/26 16:51:40;;;;;;;5.87;4.20;;;14.60;99.90;;;;;;5035266;28;20180;-47
2022/04/26 16:54:07;;;;;;;7.33;5.10;;;14.60;99.90;;;;;;5034975;28;20244;-47
2022/04/26 16:56:33;;;;;;;6.43;4.60;;;14.50;99.90;;;;;;5036248;28;20201;-46
2022/04/26 16:58:58;;;;;;;6.27;4.30;;;14.50;99.90;;;;;;5036309;28;20252;-46
2022/04/26 17:01:24;;;;;;;6.40;4.80;;;14.50;99.90;;;;;;5036677;28;20173;-47
2022/04/26 17:03:49;;;;;;;6.20;4.60;;;14.50;99.90;;;;;;5036485;28;20216;-46
2022/04/26 17:06:15;;;;;;;7.87;4.80;;;14.50;99.90;;;;;;5036510;28;20200;-48